Time;durP1;ratioP1;P1;durP2;ratioP2;P2;SDS_P1;SDS_P2;PMS_P1;PMS_P2;Temp;Humidity;BMP_temperature;BMP_pressure;BME280_temperature;BME280_humidity;BME280_pressure;Samples;Min_cycle;Max_cycle;Signal;HPM_P1;HPM_P2
2023/12/01 00:02:14;;;;;;;28.40;13.10;;;-0.30;99.90;;;;;;5096172;28;20068;-68
2023/12/01 00:04:41;;;;;;;21.77;12.15;;;-0.30;99.90;;;;;;5094057;28;20070;-69
2023/12/01 00:07:08;;;;;;;27.23;13.15;;;-0.30;99.90;;;;;;5077115;28;20052;-69
2023/12/01 00:09:35;;;;;;;27.35;13.10;;;-0.30;99.90;;;;;;5077146;28;20097;-68
2023/12/01 00:12:02;;;;;;;23.10;12.48;;;-0.30;99.90;;;;;;5093516;28;20048;-69
2023/12/01 00:14:29;;;;;;;24.60;12.63;;;-0.30;99.90;;;;;;5095740;28;20109;-68
2023/12/01 00:16:57;;;;;;;22.70;11.90;;;-0.30;99.90;;;;;;5114129;28;20039;-68
2023/12/01 00:19:24;;;;;;;22.90;11.60;;;-0.40;99.90;;;;;;5095257;28;20059;-67
2023/12/01 00:21:51;;;;;;;22.65;12.07;;;-0.30;99.90;;;;;;5095600;28;20055;-68
2023/12/01 00:24:18;;;;;;;22.13;12.02;;;-0.40;99.90;;;;;;5095524;28;20048;-68
2023/12/01 00:26:45;;;;;;;21.92;13.43;;;-0.40;99.90;;;;;;5095538;28;20055;-68
2023/12/01 00:29:12;;;;;;;24.00;12.48;;;-0.40;99.90;;;;;;5095639;28;20122;-68
2023/12/01 00:31:39;;;;;;;24.42;13.50;;;-0.50;99.90;;;;;;5095919;28;20074;-68
2023/12/01 00:34:08;;;;;;;24.65;12.73;;;-0.50;99.90;;;;;;5094886;28;20040;-68
2023/12/01 00:36:34;;;;;;;24.55;13.15;;;-0.50;99.90;;;;;;5095754;28;20097;-68
2023/12/01 00:39:01;;;;;;;25.23;13.55;;;-0.30;99.90;;;;;;5076142;28;20044;-68
2023/12/01 00:41:28;;;;;;;25.85;13.70;;;-0.60;99.90;;;;;;5076036;28;20499;-68
2023/12/01 00:43:55;;;;;;;21.42;12.52;;;-0.60;99.90;;;;;;5076834;28;20484;-67
2023/12/01 00:46:22;;;;;;;25.38;13.23;;;-0.60;99.90;;;;;;5084096;28;20127;-67
2023/12/01 00:48:49;;;;;;;22.48;12.45;;;-0.30;99.90;;;;;;5090377;28;20043;-67
2023/12/01 00:51:18;;;;;;;23.55;12.13;;;-0.30;99.90;;;;;;5080866;28;20048;-67
2023/12/01 00:53:45;;;;;;;19.83;10.98;;;-0.60;99.90;;;;;;5077219;28;20055;-68
2023/12/01 00:56:12;;;;;;;20.75;11.77;;;-0.60;99.90;;;;;;5094381;28;20067;-67
2023/12/01 00:58:39;;;;;;;20.88;11.68;;;-0.70;99.90;;;;;;5081172;28;20044;-67
2023/12/01 01:01:07;;;;;;;21.33;12.68;;;-0.70;99.90;;;;;;5097221;28;20048;-68
2023/12/01 01:03:35;;;;;;;23.33;12.57;;;-0.90;99.90;;;;;;5076955;28;20036;-67
2023/12/01 01:06:02;;;;;;;23.02;12.10;;;-0.90;99.90;;;;;;5077408;28;20072;-67
2023/12/01 01:08:31;;;;;;;22.50;13.98;;;-1.00;99.90;;;;;;5076400;28;20113;-67
2023/12/01 01:10:58;;;;;;;22.63;12.57;;;-1.00;99.90;;;;;;5078717;28;20052;-68
2023/12/01 01:13:28;;;;;;;24.05;13.32;;;-1.00;99.90;;;;;;5078829;28;20048;-67
2023/12/01 01:15:55;;;;;;;25.40;13.07;;;0.00;99.90;;;;;;5076677;28;20044;-68
2023/12/01 01:18:22;;;;;;;22.50;12.88;;;-0.90;99.90;;;;;;5084774;28;20066;-68
2023/12/01 01:20:49;;;;;;;27.48;14.13;;;-0.90;99.90;;;;;;5083232;28;20063;-68
2023/12/01 01:23:17;;;;;;;32.75;14.30;;;-0.90;99.90;;;;;;5076420;28;20548;-68
2023/12/01 01:25:45;;;;;;;24.27;14.13;;;-1.00;99.90;;;;;;5091760;28;20054;-68
2023/12/01 01:28:12;;;;;;;27.95;13.20;;;-1.00;99.90;;;;;;5091816;28;20407;-68
2023/12/01 01:30:39;;;;;;;24.83;13.27;;;-1.00;99.90;;;;;;5093026;28;20149;-68
2023/12/01 01:33:06;;;;;;;24.63;14.85;;;-1.10;99.90;;;;;;5074648;28;20052;-68
2023/12/01 01:35:32;;;;;;;24.27;13.20;;;-1.00;99.90;;;;;;5073884;28;20046;-67
2023/12/01 01:37:59;;;;;;;25.60;12.95;;;-1.00;99.90;;;;;;5105377;28;20104;-68
2023/12/01 01:40:26;;;;;;;23.70;12.80;;;-1.00;99.90;;;;;;5093906;28;20111;-68
2023/12/01 01:42:54;;;;;;;25.38;13.82;;;0.00;99.90;;;;;;5093408;28;20043;-68
2023/12/01 01:45:22;;;;;;;27.40;15.15;;;-1.00;99.90;;;;;;5093848;28;20445;-68
2023/12/01 01:47:49;;;;;;;26.58;14.20;;;-1.00;99.90;;;;;;5094010;28;20135;-68
2023/12/01 01:50:16;;;;;;;25.95;14.75;;;-1.00;99.90;;;;;;5093311;28;20124;-68
2023/12/01 01:52:44;;;;;;;29.17;15.68;;;-1.00;99.90;;;;;;5110792;28;20088;-68
2023/12/01 01:55:12;;;;;;;27.10;14.20;;;-1.00;99.90;;;;;;5081463;28;20048;-69
2023/12/01 01:57:43;;;;;;;30.25;14.50;;;-1.10;99.90;;;;;;5074272;28;20048;-70
2023/12/01 02:00:16;;;;;;;32.83;15.00;;;-1.10;99.90;;;;;;5091675;28;20036;-68
2023/12/01 02:02:43;;;;;;;32.38;15.20;;;-1.10;99.90;;;;;;5091433;28;20127;-68
2023/12/01 02:05:13;;;;;;;29.17;14.45;;;-1.10;99.90;;;;;;5091771;28;20056;-68
2023/12/01 02:07:41;;;;;;;31.40;14.73;;;-1.10;99.90;;;;;;5074749;28;20471;-68
2023/12/01 02:10:15;;;;;;;35.00;15.82;;;-1.20;99.90;;;;;;5074374;28;20491;-68
2023/12/01 02:12:43;;;;;;;31.05;16.90;;;-1.20;99.90;;;;;;5094647;28;20188;-68
2023/12/01 02:15:12;;;;;;;34.33;16.40;;;-1.20;99.90;;;;;;5077172;28;20352;-68
2023/12/01 02:17:39;;;;;;;34.80;16.92;;;-1.20;99.90;;;;;;5075508;28;20052;-69
2023/12/01 02:20:14;;;;;;;33.97;15.20;;;-1.30;99.90;;;;;;5076224;28;20048;-68
2023/12/01 02:22:45;;;;;;;28.70;14.57;;;-1.30;99.90;;;;;;5077310;28;20381;-69
2023/12/01 02:25:12;;;;;;;33.63;17.33;;;-1.30;99.90;;;;;;5076800;28;20093;-68
2023/12/01 02:27:39;;;;;;;32.63;16.77;;;-1.30;99.90;;;;;;5078029;28;20050;-67
2023/12/01 02:30:07;;;;;;;38.80;17.13;;;-1.30;99.90;;;;;;5077742;28;20044;-68
2023/12/01 02:32:33;;;;;;;39.85;16.80;;;-1.30;99.90;;;;;;5075115;28;20068;-67
2023/12/01 02:35:00;;;;;;;30.15;15.25;;;-1.20;99.90;;;;;;5074475;28;20047;-69
2023/12/01 02:37:27;;;;;;;32.83;15.98;;;-1.20;99.90;;;;;;5076035;28;20048;-68
2023/12/01 02:39:55;;;;;;;39.55;16.80;;;-1.30;99.90;;;;;;5074175;28;20109;-68
2023/12/01 02:42:22;;;;;;;37.83;17.50;;;-1.30;99.90;;;;;;5076582;28;20047;-67
2023/12/01 02:44:49;;;;;;;38.47;17.55;;;-1.40;99.90;;;;;;5080498;28;20048;-68
2023/12/01 02:47:16;;;;;;;39.22;17.17;;;-1.30;99.90;;;;;;5076272;28;20048;-68
2023/12/01 02:49:43;;;;;;;35.25;17.85;;;-1.50;99.90;;;;;;5074389;28;20040;-68
2023/12/01 02:52:10;;;;;;;34.03;16.70;;;-1.50;99.90;;;;;;5077262;28;20093;-67
2023/12/01 02:54:37;;;;;;;32.28;15.85;;;-1.60;99.90;;;;;;5073775;28;20040;-67
2023/12/01 02:57:05;;;;;;;36.05;16.85;;;-1.60;99.90;;;;;;5077815;28;20113;-69
2023/12/01 02:59:34;;;;;;;35.88;17.08;;;-1.70;99.90;;;;;;5074486;28;20450;-67
2023/12/01 03:02:01;;;;;;;39.60;18.67;;;-1.70;99.90;;;;;;5076845;28;20047;-68
2023/12/01 03:04:28;;;;;;;36.58;17.80;;;-1.70;99.90;;;;;;5076245;28;20062;-67
2023/12/01 03:06:55;;;;;;;35.75;17.42;;;-1.80;99.90;;;;;;5098121;28;20381;-69
2023/12/01 03:09:22;;;;;;;37.70;17.08;;;-1.80;99.90;;;;;;5078915;28;20457;-68
2023/12/01 03:11:49;;;;;;;36.63;18.13;;;-1.80;99.90;;;;;;5082059;28;20799;-67
2023/12/01 03:14:19;;;;;;;33.65;16.30;;;-1.80;99.90;;;;;;5077880;28;20131;-68
2023/12/01 03:16:46;;;;;;;35.65;17.67;;;-1.90;99.90;;;;;;5080455;28;20044;-69
2023/12/01 03:19:13;;;;;;;34.88;16.35;;;-2.00;99.90;;;;;;5078507;28;20063;-68
2023/12/01 03:21:40;;;;;;;38.85;16.38;;;-2.10;99.90;;;;;;5079242;28;20090;-68
2023/12/01 03:24:09;;;;;;;32.78;15.30;;;-2.20;99.90;;;;;;5077770;28;20047;-67
2023/12/01 03:26:36;;;;;;;38.47;16.98;;;-2.30;99.90;;;;;;5080028;28;20058;-68
2023/12/01 03:29:03;;;;;;;36.17;16.45;;;-2.30;99.90;;;;;;5095395;28;20054;-68
2023/12/01 03:31:31;;;;;;;35.78;16.20;;;-2.40;99.90;;;;;;5096838;28;20052;-68
2023/12/01 03:33:59;;;;;;;41.45;16.35;;;-2.50;99.90;;;;;;5074964;28;20089;-68
2023/12/01 03:36:25;;;;;;;32.85;15.68;;;-2.50;99.90;;;;;;5074424;28;20054;-68
2023/12/01 03:38:52;;;;;;;35.83;16.40;;;-2.60;99.90;;;;;;5076858;28;20101;-69
2023/12/01 03:41:19;;;;;;;37.00;17.15;;;-2.60;99.90;;;;;;5076534;28;20052;-68
2023/12/01 03:43:46;;;;;;;33.88;16.42;;;-2.70;99.90;;;;;;5076693;28;20105;-68
2023/12/01 03:46:13;;;;;;;32.00;17.17;;;-2.70;99.90;;;;;;5094370;28;20048;-68
2023/12/01 03:48:41;;;;;;;35.70;16.92;;;-2.80;99.90;;;;;;5095438;28;20504;-67
2023/12/01 03:51:09;;;;;;;35.28;16.05;;;-2.80;99.90;;;;;;5094205;28;20053;-67
2023/12/01 03:53:36;;;;;;;36.20;16.27;;;-2.90;99.90;;;;;;5114234;28;20146;-68
2023/12/01 03:56:04;;;;;;;33.00;16.67;;;-2.90;99.90;;;;;;5095432;28;20047;-68
2023/12/01 03:58:31;;;;;;;32.78;15.88;;;-2.90;99.90;;;;;;5096106;28;20044;-67
2023/12/01 04:00:58;;;;;;;36.95;16.85;;;-3.00;99.90;;;;;;5089313;28;20056;-67
2023/12/01 04:03:25;;;;;;;36.97;15.65;;;-3.00;99.90;;;;;;5094886;28;20111;-69
2023/12/01 04:05:53;;;;;;;36.45;16.48;;;-3.00;99.90;;;;;;5077226;28;20072;-68
2023/12/01 04:08:20;;;;;;;32.47;15.57;;;-3.10;99.90;;;;;;5096102;28;20055;-68
2023/12/01 04:10:47;;;;;;;39.70;16.77;;;-3.10;99.90;;;;;;5095359;28;20059;-67
2023/12/01 04:13:15;;;;;;;35.00;16.45;;;-3.20;99.90;;;;;;5096287;28;20147;-67
2023/12/01 04:15:43;;;;;;;35.97;16.70;;;-3.20;99.90;;;;;;5094952;28;20415;-67
2023/12/01 04:18:10;;;;;;;38.78;16.40;;;-3.20;99.90;;;;;;5094297;28;20057;-68
2023/12/01 04:20:38;;;;;;;34.50;15.32;;;-3.20;99.90;;;;;;5095421;28;20055;-69
2023/12/01 04:23:09;;;;;;;40.05;16.90;;;-3.20;99.90;;;;;;5095914;28;20510;-68
2023/12/01 04:25:36;;;;;;;;;;;-3.30;99.90;;;;;;5076909;28;20040;-68
2023/12/01 04:28:03;;;;;;;29.77;13.82;;;-3.30;99.90;;;;;;5076923;28;20064;-69
2023/12/01 04:30:30;;;;;;;31.73;14.95;;;-3.40;99.90;;;;;;5076650;28;20496;-67
2023/12/01 04:32:59;;;;;;;33.92;15.00;;;-3.10;99.90;;;;;;5094465;28;20048;-67
2023/12/01 04:35:28;;;;;;;34.47;14.80;;;-3.40;99.90;;;;;;5076340;28;20479;-68
2023/12/01 04:37:55;;;;;;;28.75;13.40;;;-3.40;99.90;;;;;;5076653;28;20055;-68
2023/12/01 04:40:26;;;;;;;29.55;14.27;;;-3.40;99.90;;;;;;5075899;28;20044;-68
2023/12/01 04:42:54;;;;;;;27.98;13.40;;;-3.50;99.90;;;;;;5076575;28;20067;-68
2023/12/01 04:45:24;;;;;;;30.13;14.80;;;-3.50;99.90;;;;;;5075694;28;20123;-67
2023/12/01 04:47:52;;;;;;;24.95;13.77;;;-3.50;99.90;;;;;;5076054;28;20044;-69
2023/12/01 04:50:20;;;;;;;33.22;15.20;;;-3.50;99.90;;;;;;5076459;28;20078;-68
2023/12/01 04:52:48;;;;;;;31.70;15.23;;;-3.50;99.90;;;;;;5092650;28;20048;-67
2023/12/01 04:55:17;;;;;;;32.50;15.32;;;-3.50;99.90;;;;;;5094886;28;20047;-68
2023/12/01 04:57:47;;;;;;;29.20;14.38;;;-3.50;99.90;;;;;;5095117;28;20054;-69
2023/12/01 05:00:22;;;;;;;33.10;15.23;;;-3.60;99.90;;;;;;5093642;28;20070;-67
2023/12/01 05:02:51;;;;;;;30.67;15.13;;;-3.60;99.90;;;;;;5075898;28;20048;-68
2023/12/01 05:05:19;;;;;;;30.33;13.50;;;-3.60;99.90;;;;;;5075734;28;20052;-67
2023/12/01 05:07:49;;;;;;;27.35;13.40;;;-3.60;99.90;;;;;;5075545;28;20051;-68
2023/12/01 05:10:16;;;;;;;29.05;14.05;;;-3.60;99.90;;;;;;5076005;28;20132;-67
2023/12/01 05:12:49;;;;;;;29.02;15.52;;;-3.50;99.90;;;;;;5075645;28;20059;-67
2023/12/01 05:15:16;;;;;;;30.85;14.43;;;-2.60;99.90;;;;;;5075242;28;20047;-69
2023/12/01 05:17:48;;;;;;;29.02;12.75;;;-3.60;99.90;;;;;;5078497;28;20537;-69
2023/12/01 05:20:18;;;;;;;27.92;13.35;;;-3.60;99.90;;;;;;5075258;28;20083;-69
2023/12/01 05:22:46;;;;;;;27.83;13.23;;;-3.50;99.90;;;;;;5074906;28;20055;-68
2023/12/01 05:25:14;;;;;;;27.73;13.70;;;-3.60;99.90;;;;;;5075889;28;20097;-69
2023/12/01 05:27:44;;;;;;;30.70;14.52;;;-3.60;99.90;;;;;;5093952;28;20044;-69
2023/12/01 05:30:14;;;;;;;29.52;13.45;;;-3.60;99.90;;;;;;5094456;28;20143;-68
2023/12/01 05:32:42;;;;;;;29.58;14.30;;;-3.60;99.90;;;;;;5094744;28;20108;-69
2023/12/01 05:35:11;;;;;;;34.33;15.07;;;-3.60;99.90;;;;;;5074614;28;20523;-69
2023/12/01 05:37:39;;;;;;;31.25;14.98;;;-3.60;99.90;;;;;;5075236;28;20094;-68
2023/12/01 05:40:09;;;;;;;28.77;13.80;;;-3.60;99.90;;;;;;5075241;28;20111;-69
2023/12/01 05:42:36;;;;;;;28.08;13.25;;;-3.60;99.90;;;;;;5074927;28;20496;-67
2023/12/01 05:45:04;;;;;;;28.92;13.27;;;-3.60;99.90;;;;;;5075224;28;20097;-69
2023/12/01 05:47:32;;;;;;;27.52;14.60;;;-3.70;99.90;;;;;;5075061;28;20082;-68
2023/12/01 05:49:59;;;;;;;26.05;13.43;;;-3.70;99.90;;;;;;5074619;28;20043;-68
2023/12/01 05:52:26;;;;;;;34.90;14.05;;;-3.70;99.90;;;;;;5075272;28;20059;-68
2023/12/01 05:54:53;;;;;;;25.00;12.23;;;-3.70;99.90;;;;;;5093047;28;20047;-68
2023/12/01 05:57:20;;;;;;;29.67;13.63;;;-3.70;99.90;;;;;;5074605;28;20040;-69
2023/12/01 05:59:48;;;;;;;24.52;11.98;;;-3.70;99.90;;;;;;5093915;28;20079;-70
2023/12/01 06:02:15;;;;;;;26.58;13.00;;;-3.70;99.90;;;;;;5093826;28;20059;-68
2023/12/01 06:04:44;;;;;;;28.35;13.15;;;-3.70;99.90;;;;;;5093335;28;20044;-69
2023/12/01 06:07:11;;;;;;;27.92;13.05;;;-3.70;99.90;;;;;;5093617;28;20052;-69
2023/12/01 06:09:38;;;;;;;31.02;12.00;;;-3.70;99.90;;;;;;5094000;28;20093;-68
2023/12/01 06:12:05;;;;;;;24.42;12.63;;;-3.70;99.90;;;;;;5093558;28;20040;-69
2023/12/01 06:14:32;;;;;;;23.35;12.80;;;-3.80;99.90;;;;;;5093915;28;20054;-67
2023/12/01 06:17:00;;;;;;;23.10;12.00;;;-3.80;99.90;;;;;;5092764;28;20044;-68
2023/12/01 06:19:27;;;;;;;30.75;12.95;;;-3.80;99.90;;;;;;5111613;28;20043;-69
2023/12/01 06:21:58;;;;;;;27.42;12.57;;;-3.60;99.90;;;;;;5112231;28;20044;-68
2023/12/01 06:24:25;;;;;;;24.60;11.82;;;-3.80;99.90;;;;;;5074148;28;20047;-68
2023/12/01 06:26:53;;;;;;;23.58;11.65;;;-3.60;99.90;;;;;;5074431;28;20047;-68
2023/12/01 06:29:21;;;;;;;28.25;13.50;;;-3.80;99.90;;;;;;5074802;28;20047;-69
2023/12/01 06:31:48;;;;;;;26.02;13.13;;;-3.90;99.90;;;;;;5074035;28;20059;-67
2023/12/01 06:34:15;;;;;;;21.98;11.13;;;-3.90;99.90;;;;;;5074652;28;20101;-68
2023/12/01 06:36:41;;;;;;;26.55;12.65;;;-3.90;99.90;;;;;;5074114;28;20093;-69
2023/12/01 06:39:10;;;;;;;24.92;11.82;;;-3.90;99.90;;;;;;5073730;28;20056;-68
2023/12/01 06:41:38;;;;;;;26.25;12.25;;;-3.90;99.90;;;;;;5092605;28;20040;-67
2023/12/01 06:44:05;;;;;;;25.48;11.43;;;-3.90;99.90;;;;;;5074662;28;20075;-68
2023/12/01 06:46:33;;;;;;;24.35;13.00;;;-3.90;99.90;;;;;;5073916;28;20044;-68
2023/12/01 06:49:00;;;;;;;27.02;12.55;;;-3.90;99.90;;;;;;5109334;28;20131;-67
2023/12/01 06:51:27;;;;;;;25.90;12.50;;;-4.00;99.90;;;;;;5093285;28;20062;-67
2023/12/01 06:53:56;;;;;;;24.27;12.02;;;-3.90;99.90;;;;;;5093041;28;20122;-67
2023/12/01 06:56:24;;;;;;;25.25;12.45;;;-3.90;99.90;;;;;;5092960;28;20497;-67
2023/12/01 06:58:51;;;;;;;25.80;13.43;;;-3.90;99.90;;;;;;5093492;28;20083;-67
2023/12/01 07:01:19;;;;;;;25.40;13.02;;;-4.00;99.90;;;;;;5091957;28;20086;-68
2023/12/01 07:03:46;;;;;;;21.50;11.00;;;-4.00;99.90;;;;;;5074387;28;20075;-68
2023/12/01 07:06:13;;;;;;;27.02;13.02;;;-4.00;99.90;;;;;;5073668;28;20093;-67
2023/12/01 07:08:41;;;;;;;23.10;11.68;;;-4.00;99.90;;;;;;5092226;28;20040;-69
2023/12/01 07:11:08;;;;;;;26.15;12.98;;;-4.00;99.90;;;;;;5091984;28;20086;-68
2023/12/01 07:13:36;;;;;;;25.80;12.85;;;-4.00;99.90;;;;;;5073349;28;20094;-68
2023/12/01 07:16:09;;;;;;;22.27;12.15;;;-4.00;99.90;;;;;;5073766;28;20052;-68
2023/12/01 07:18:38;;;;;;;27.10;14.23;;;-4.00;99.90;;;;;;5074065;28;20127;-68
2023/12/01 07:21:06;;;;;;;27.33;13.50;;;-4.00;99.90;;;;;;5090118;28;20079;-68
2023/12/01 07:23:33;;;;;;;25.98;12.98;;;-4.00;99.90;;;;;;5092721;28;20058;-68
2023/12/01 07:26:00;;;;;;;25.05;12.35;;;-4.10;99.90;;;;;;5092654;28;20112;-67
2023/12/01 07:28:28;;;;;;;23.67;12.18;;;-4.10;99.90;;;;;;5092129;28;20096;-69
2023/12/01 07:30:56;;;;;;;27.23;12.68;;;-4.10;99.90;;;;;;5111332;28;20400;-68
2023/12/01 07:33:23;;;;;;;27.35;14.20;;;-4.10;99.90;;;;;;5092829;28;20445;-67
2023/12/01 07:35:50;;;;;;;26.92;12.30;;;-4.10;99.90;;;;;;5092312;28;20525;-68
2023/12/01 07:38:17;;;;;;;22.42;11.48;;;-4.10;99.90;;;;;;5073982;28;20055;-68
2023/12/01 07:40:44;;;;;;;28.67;14.30;;;-4.00;99.90;;;;;;5073745;28;20139;-69
2023/12/01 07:43:12;;;;;;;32.53;14.30;;;-4.00;99.90;;;;;;5075799;28;20534;-68
2023/12/01 07:45:38;;;;;;;30.13;14.88;;;-4.00;99.90;;;;;;5073385;28;20395;-67
2023/12/01 07:48:09;;;;;;;30.75;14.20;;;-4.00;99.90;;;;;;5091524;28;20385;-68
2023/12/01 07:50:36;;;;;;;33.83;15.82;;;-4.00;99.90;;;;;;5092500;28;20047;-68
2023/12/01 07:53:04;;;;;;;31.05;15.77;;;-6.40;99.90;;;;;;5096162;28;20100;-68
2023/12/01 07:55:32;;;;;;;33.80;14.95;;;-4.00;99.90;;;;;;5095420;28;20100;-68
2023/12/01 07:57:59;;;;;;;32.60;16.10;;;-3.90;99.90;;;;;;5096379;28;20047;-68
2023/12/01 08:00:27;;;;;;;29.20;15.00;;;-3.80;99.90;;;;;;5096269;28;20075;-67
2023/12/01 08:02:55;;;;;;;35.35;16.58;;;-2.40;99.90;;;;;;5093666;28;20506;-67
2023/12/01 08:05:23;;;;;;;30.13;14.63;;;-3.40;99.90;;;;;;5095942;28;20449;-67
2023/12/01 08:07:52;;;;;;;34.42;16.90;;;-2.80;99.90;;;;;;5095742;28;20506;-68
2023/12/01 08:10:19;;;;;;;31.23;14.75;;;-2.10;99.90;;;;;;5076497;28;20117;-69
2023/12/01 08:12:48;;;;;;;28.20;13.98;;;-1.50;99.90;;;;;;5076899;28;20450;-68
2023/12/01 08:15:16;;;;;;;31.92;15.68;;;-1.00;99.90;;;;;;5076923;28;20055;-69
2023/12/01 08:17:45;;;;;;;27.23;14.45;;;-0.60;99.90;;;;;;5092840;28;20124;-68
2023/12/01 08:20:12;;;;;;;30.60;14.35;;;-0.10;99.90;;;;;;5105024;28;20048;-69
2023/12/01 08:22:43;;;;;;;25.92;13.23;;;0.30;99.90;;;;;;5084175;28;20044;-69
2023/12/01 08:25:10;;;;;;;26.98;14.25;;;0.60;99.90;;;;;;5078022;28;20052;-66
2023/12/01 08:27:39;;;;;;;25.67;13.27;;;1.30;99.90;;;;;;5077426;28;20039;-67
2023/12/01 08:30:07;;;;;;;25.67;13.50;;;1.70;99.90;;;;;;5080235;28;20131;-69
2023/12/01 08:32:34;;;;;;;23.15;12.80;;;2.40;99.90;;;;;;5077577;28;20101;-66
2023/12/01 08:35:01;;;;;;;24.25;12.20;;;2.80;99.90;;;;;;5095306;28;20113;-68
2023/12/01 08:37:29;;;;;;;20.52;11.88;;;3.20;99.90;;;;;;5093778;28;20044;-68
2023/12/01 08:39:57;;;;;;;21.85;11.90;;;3.60;99.90;;;;;;5094843;28;20055;-68
2023/12/01 08:42:24;;;;;;;23.23;13.07;;;4.30;99.90;;;;;;5085200;28;20052;-68
2023/12/01 08:44:51;;;;;;;22.30;12.98;;;4.80;99.90;;;;;;5075088;28;20054;-68
2023/12/01 08:47:21;;;;;;;26.20;14.98;;;4.90;99.90;;;;;;5086814;28;20467;-69
2023/12/01 08:49:49;;;;;;;21.27;13.05;;;5.20;99.90;;;;;;5103005;28;20052;-68
2023/12/01 08:52:17;;;;;;;24.17;13.82;;;5.60;99.90;;;;;;5095710;28;20044;-67
2023/12/01 08:54:44;;;;;;;20.20;12.43;;;6.30;99.90;;;;;;5094323;28;20123;-66
2023/12/01 08:57:13;;;;;;;22.63;13.63;;;6.30;99.90;;;;;;5094488;28;20055;-68
2023/12/01 08:59:40;;;;;;;23.33;13.95;;;6.70;99.90;;;;;;5096873;28;20457;-68
2023/12/01 09:02:07;;;;;;;22.92;12.80;;;6.90;99.90;;;;;;5093130;28;20096;-68
2023/12/01 09:04:34;;;;;;;22.58;13.10;;;7.50;99.90;;;;;;5093392;28;20054;-68
2023/12/01 09:07:00;;;;;;;20.85;13.68;;;7.50;99.90;;;;;;5074480;28;20381;-68
2023/12/01 09:09:27;;;;;;;21.10;11.93;;;7.50;99.90;;;;;;5096817;28;20462;-67
2023/12/01 09:11:55;;;;;;;24.85;13.93;;;7.90;99.90;;;;;;5084072;28;20571;-70
2023/12/01 09:14:23;;;;;;;19.65;12.65;;;7.50;98.80;;;;;;5100568;28;20442;-66
2023/12/01 09:16:50;;;;;;;17.80;11.88;;;6.70;99.90;;;;;;5083196;28;20047;-68
2023/12/01 09:19:17;;;;;;;17.73;11.95;;;6.60;99.90;;;;;;5081008;28;20499;-68
2023/12/01 09:21:45;;;;;;;15.75;10.30;;;6.50;99.90;;;;;;5074185;28;20109;-67
2023/12/01 09:24:12;;;;;;;20.40;11.25;;;6.60;99.90;;;;;;5075140;28;20130;-68
2023/12/01 09:26:38;;;;;;;20.42;12.18;;;7.10;98.90;;;;;;5074476;28;20127;-66
2023/12/01 09:29:05;;;;;;;20.70;12.55;;;8.10;99.90;;;;;;5092771;28;20109;-69
2023/12/01 09:31:34;;;;;;;17.20;10.55;;;8.50;99.20;;;;;;5093769;28;20047;-67
2023/12/01 09:34:00;;;;;;;17.10;11.38;;;8.30;95.50;;;;;;5079810;28;20113;-67
2023/12/01 09:36:27;;;;;;;19.05;12.27;;;9.50;96.70;;;;;;5092762;28;20040;-68
2023/12/01 09:38:54;;;;;;;17.73;11.65;;;8.90;96.10;;;;;;5073763;28;20068;-67
2023/12/01 09:41:21;;;;;;;15.48;10.38;;;8.80;95.70;;;;;;5089545;28;20085;-67
2023/12/01 09:43:48;;;;;;;15.02;10.40;;;9.60;97.30;;;;;;5101210;28;20051;-68
2023/12/01 09:46:15;;;;;;;15.50;10.20;;;9.70;94.70;;;;;;5101854;28;20047;-69
2023/12/01 09:48:47;;;;;;;16.17;11.55;;;9.70;93.60;;;;;;5080991;28;20135;-69
2023/12/01 09:51:14;;;;;;;18.33;11.55;;;9.20;92.60;;;;;;5081273;28;20044;-68
2023/12/01 09:53:41;;;;;;;17.27;11.30;;;8.90;94.60;;;;;;5074448;28;20048;-68
2023/12/01 09:56:10;;;;;;;17.05;11.57;;;9.10;95.60;;;;;;5073940;28;20056;-68
2023/12/01 09:58:37;;;;;;;15.45;11.02;;;9.30;93.60;;;;;;5074152;28;20048;-68
2023/12/01 10:01:05;;;;;;;16.65;11.00;;;8.90;92.30;;;;;;5093554;28;20062;-68
2023/12/01 10:03:31;;;;;;;14.82;10.55;;;9.00;92.40;;;;;;5074409;28;20058;-69
2023/12/01 10:06:00;;;;;;;17.02;10.75;;;9.40;94.60;;;;;;5092618;28;20471;-68
2023/12/01 10:08:27;;;;;;;15.75;10.98;;;9.20;94.50;;;;;;5092164;28;20052;-67
2023/12/01 10:10:54;;;;;;;16.58;10.52;;;9.00;94.20;;;;;;5073555;28;20076;-67
2023/12/01 10:13:21;;;;;;;14.75;10.80;;;9.10;95.10;;;;;;5074047;28;20101;-68
2023/12/01 10:15:49;;;;;;;14.82;10.73;;;8.90;94.60;;;;;;5073804;28;20097;-68
2023/12/01 10:18:18;;;;;;;17.20;11.23;;;8.90;95.90;;;;;;5091640;28;20094;-67
2023/12/01 10:20:58;;;;;;;16.83;11.50;;;8.60;94.10;;;;;;5073864;28;20144;-68
2023/12/01 10:23:28;;;;;;;17.85;10.73;;;8.80;94.00;;;;;;5092161;28;20455;-67
2023/12/01 10:25:55;;;;;;;16.02;10.93;;;9.20;94.40;;;;;;5093275;28;20459;-69
2023/12/01 10:28:26;;;;;;;14.60;10.52;;;10.00;94.80;;;;;;5093204;28;20048;-68
2023/12/01 10:30:54;;;;;;;16.95;11.35;;;9.90;92.00;;;;;;5092476;28;20056;-68
2023/12/01 10:33:22;;;;;;;17.25;11.15;;;9.90;93.20;;;;;;5084335;28;20060;-68
2023/12/01 10:36:03;;;;;;;16.35;11.07;;;9.30;93.70;;;;;;5092693;28;20413;-69
2023/12/01 10:38:33;;;;;;;;;;;10.10;93.00;;;;;;5111449;28;20039;-68
2023/12/01 10:41:00;;;;;;;14.17;10.40;;;8.90;93.40;;;;;;5099705;28;19931;-67
2023/12/01 10:43:28;;;;;;;15.77;10.15;;;8.80;93.90;;;;;;5081388;28;20200;-69
2023/12/01 10:45:58;;;;;;;14.55;9.70;;;9.80;95.30;;;;;;5099277;28;20446;-69
2023/12/01 10:48:27;;;;;;;17.40;10.80;;;11.10;93.40;;;;;;5081234;28;20048;-69
2023/12/01 10:50:55;;;;;;;14.98;10.02;;;12.00;91.20;;;;;;5079775;28;20066;-69
2023/12/01 10:53:25;;;;;;;12.80;9.73;;;12.10;91.00;;;;;;5096765;28;20117;-69
2023/12/01 10:55:56;;;;;;;14.55;10.65;;;11.90;89.20;;;;;;5099519;28;20130;-69
2023/12/01 10:58:25;;;;;;;16.20;10.93;;;12.20;89.50;;;;;;5098455;28;20130;-69
2023/12/01 11:00:53;;;;;;;14.63;10.20;;;12.00;91.80;;;;;;5084342;28;20139;-69
2023/12/01 11:03:22;;;;;;;14.10;10.88;;;11.60;87.00;;;;;;5088484;28;20060;-68
2023/12/01 11:05:52;;;;;;;15.60;10.95;;;11.30;91.40;;;;;;5074961;28;20067;-69
2023/12/01 11:08:36;;;;;;;15.57;10.73;;;10.70;91.30;;;;;;5078956;28;20392;-69
2023/12/01 11:11:16;;;;;;;14.20;10.48;;;10.70;90.80;;;;;;5075738;28;20072;-69
2023/12/01 11:13:59;;;;;;;14.37;10.37;;;9.50;91.50;;;;;;5075711;28;20044;-69
2023/12/01 11:16:27;;;;;;;14.25;9.90;;;8.00;93.80;;;;;;5078637;28;20286;-68
2023/12/01 11:18:56;;;;;;;16.23;11.50;;;7.90;95.80;;;;;;5077996;28;20508;-68
2023/12/01 11:21:23;;;;;;;14.52;10.13;;;7.50;95.90;;;;;;5093551;28;20496;-67
2023/12/01 11:23:50;;;;;;;17.83;11.18;;;8.10;96.50;;;;;;5075329;28;20040;-68
2023/12/01 11:26:18;;;;;;;15.45;10.82;;;8.20;96.40;;;;;;5082199;28;20048;-68
2023/12/01 11:28:55;;;;;;;14.95;10.02;;;8.00;95.70;;;;;;5080273;28;20399;-69
2023/12/01 11:31:34;;;;;;;18.73;12.40;;;8.70;94.30;;;;;;5077959;28;20547;-68
2023/12/01 11:34:02;;;;;;;14.80;10.57;;;9.90;94.30;;;;;;5083707;28;20051;-69
2023/12/01 11:36:31;;;;;;;14.52;10.60;;;10.70;93.90;;;;;;5082026;28;20044;-69
2023/12/01 11:39:20;;;;;;;15.25;10.77;;;11.20;91.50;;;;;;5083844;28;20131;-69
2023/12/01 11:41:56;;;;;;;15.38;10.93;;;9.90;92.60;;;;;;5077962;28;20123;-69
2023/12/01 11:44:24;;;;;;;17.25;10.70;;;9.10;94.10;;;;;;5079342;28;20135;-69
2023/12/01 11:46:59;;;;;;;16.70;10.48;;;8.30;94.80;;;;;;5078637;28;20041;-69
2023/12/01 11:49:26;;;;;;;18.27;11.52;;;7.90;96.40;;;;;;5089514;28;20403;-69
2023/12/01 11:51:53;;;;;;;18.98;12.13;;;7.00;97.30;;;;;;5084412;28;20040;-69
2023/12/01 11:54:21;;;;;;;19.25;12.10;;;6.00;99.90;;;;;;5080594;28;20060;-69
2023/12/01 11:56:49;;;;;;;18.00;11.23;;;5.00;99.90;;;;;;5079286;28;20055;-69
2023/12/01 11:59:18;;;;;;;17.73;11.85;;;5.00;99.90;;;;;;5077671;28;20448;-68
2023/12/01 12:01:47;;;;;;;20.02;12.13;;;4.80;99.90;;;;;;5078851;28;20091;-68
2023/12/01 12:04:16;;;;;;;18.80;12.55;;;4.60;99.90;;;;;;5079895;28;20056;-70
2023/12/01 12:06:44;;;;;;;18.45;11.73;;;4.40;99.90;;;;;;5077972;28;20079;-69
2023/12/01 12:09:17;;;;;;;20.30;11.52;;;4.60;99.90;;;;;;5097317;28;20437;-69
2023/12/01 12:11:45;;;;;;;19.25;11.75;;;4.70;99.90;;;;;;5085410;28;20044;-69
2023/12/01 12:14:13;;;;;;;19.02;11.40;;;4.50;99.90;;;;;;5079632;28;20080;-68
2023/12/01 12:16:41;;;;;;;16.25;10.82;;;5.30;99.90;;;;;;5092005;28;20522;-68
2023/12/01 12:19:09;;;;;;;17.25;11.10;;;5.60;99.90;;;;;;5077938;28;20059;-69
2023/12/01 12:21:37;;;;;;;17.42;10.75;;;5.40;99.90;;;;;;5077215;28;20106;-68
2023/12/01 12:24:05;;;;;;;20.17;12.38;;;5.70;99.90;;;;;;5089317;28;20044;-68
2023/12/01 12:26:32;;;;;;;17.98;11.32;;;6.10;99.90;;;;;;5084189;28;20048;-69
2023/12/01 12:29:00;;;;;;;16.45;10.27;;;7.10;99.90;;;;;;5077370;28;20377;-69
2023/12/01 12:31:29;;;;;;;18.23;11.80;;;8.30;99.90;;;;;;5078026;28;20462;-69
2023/12/01 12:33:59;;;;;;;16.52;11.18;;;9.50;98.60;;;;;;5083600;28;20055;-69
2023/12/01 12:36:27;;;;;;;16.73;11.07;;;10.30;97.10;;;;;;5101080;28;20056;-70